This is the latest recevied weather packets stored in our database for station/object DM0MR. If no packets are shown the sender has not sent any weather packets the latest 10 day(s).
| Time | Temp. | Humidity | Pressure | Rain* | Wind** | Luminosity | Snow |
|---|---|---|---|---|---|---|---|
| 1787501285 | 18.33° C | 54% | 1020.2 hPa | 0 mm | - | - | - |
| 1787500384 | 17.78° C | 55% | 1020.3 hPa | 0 mm | - | - | - |
| 1787496783 | 18.33° C | 55% | 1020.3 hPa | 0 mm | - | - | - |
| 1787494987 | 19.44° C | 56% | 1020.4 hPa | 0 mm | - | - | - |
| 1787494084 | 20.56° C | 50% | 1020.4 hPa | 0 mm | - | - | - |
| 1787492283 | 20.56° C | 49% | 1020.3 hPa | 0 mm | - | - | - |
| 1787490485 | 22.22° C | 44% | 1020.5 hPa | 0 mm | - | - | - |
| 1787485984 | 18.33° C | 55% | 1020.8 hPa | 0 mm | - | - | - |
| 1787485084 | 17.78° C | 57% | 1020.8 hPa | 0 mm | - | - | - |
| 1787480582 | 17.78° C | 56% | 1020.6 hPa | 0 mm | - | - | - |
| 1787479683 | 17.22° C | 57% | 1020.7 hPa | 0 mm | - | - | - |
| 1787478783 | 18.33° C | 56% | 1020.6 hPa | 0 mm | - | - | - |
| 1787477883 | 16.67° C | 66% | 1020.9 hPa | 0 mm | - | - | - |
| 1787476983 | 15.56° C | 67% | 1020.7 hPa | 0 mm | - | - | - |
| 1787473383 | 17.22° C | 71% | 1020.8 hPa | 0 mm | - | - | - |
| 1787471583 | 16.67° C | 75% | 1020.8 hPa | 0 mm | - | - | - |
| 1787468883 | 16.67° C | 77% | 1020.6 hPa | 0 mm | - | - | - |
| 1787467983 | 15.56° C | 80% | 1020.7 hPa | 0 mm | - | - | - |
| 1787467082 | 14.44° C | 86% | 1020.8 hPa | 0 mm | - | - | - |
| 1787463482 | 10° C | 98% | 1020.4 hPa | 0 mm | - | - | - |
| 1787462584 | 9.44° C | 98% | 1020.3 hPa | 0 mm | - | - | - |
| 1787461686 | 9.44° C | 98% | 1020.3 hPa | 0 mm | - | - | - |
| 1787460782 | 8.89° C | 98% | 1020.2 hPa | 0 mm | - | - | - |
| 1787458082 | 8.33° C | 98% | 1019.8 hPa | 0 mm | - | - | - |
| 1787456283 | 8.33° C | 97% | 1019.7 hPa | 0 mm | - | - | - |
* Rain latest hour (hover to see other rain measurements)
** Current wind speed in m/s (hover to see current wind gust speed)